createdAt,value
2022-12-11T00:01:58.657Z,100645.56
2022-12-11T00:04:25.285Z,100650.97
2022-12-11T00:06:52.998Z,100652.38
2022-12-11T00:09:21.096Z,100645.66
2022-12-11T00:11:48.334Z,100646.47
2022-12-11T00:14:15.269Z,100644.28
2022-12-11T00:16:41.993Z,100639.28
2022-12-11T00:19:08.663Z,100642.50
2022-12-11T00:21:35.330Z,100639.28
2022-12-11T00:24:01.948Z,100640.75
2022-12-11T00:26:28.509Z,100644.53
2022-12-11T00:28:57.310Z,100647.53
2022-12-11T00:31:24.398Z,100638.84
2022-12-11T00:33:51.387Z,100637.72
2022-12-11T00:36:23.801Z,100637.59
2022-12-11T00:38:50.743Z,100635.31
2022-12-11T00:41:18.258Z,100635.59
2022-12-11T00:43:45.077Z,100639.78
2022-12-11T00:46:12.296Z,100638.28
2022-12-11T00:48:39.133Z,100627.84
2022-12-11T00:51:05.950Z,100637.00
2022-12-11T00:53:32.797Z,100631.97
2022-12-11T00:55:59.366Z,100634.06
2022-12-11T00:58:26.059Z,100639.47
2022-12-11T01:00:54.536Z,100646.41
2022-12-11T01:03:21.183Z,100635.31
2022-12-11T01:05:55.044Z,100628.66
2022-12-11T01:08:22.030Z,100644.53
2022-12-11T01:10:48.677Z,100645.63
2022-12-11T01:13:15.829Z,100639.97
2022-12-11T01:15:45.182Z,100642.50
2022-12-11T01:18:14.059Z,100645.69
2022-12-11T01:20:42.711Z,100649.91
2022-12-11T01:23:11.322Z,100653.41
2022-12-11T01:25:40.912Z,100657.16
2022-12-11T01:28:08.288Z,100649.03
2022-12-11T01:30:35.004Z,100646.03
2022-12-11T01:33:01.571Z,100646.72
2022-12-11T01:35:28.547Z,100649.25
2022-12-11T01:37:55.658Z,100649.06
2022-12-11T01:40:23.043Z,100645.06
2022-12-11T01:42:50.157Z,100651.38
2022-12-11T01:45:27.005Z,100644.94
2022-12-11T01:48:05.429Z,100648.06
2022-12-11T01:50:34.899Z,100648.91
2022-12-11T01:53:03.957Z,100650.97
2022-12-11T01:55:31.147Z,100651.75
2022-12-11T01:57:58.408Z,100651.38
2022-12-11T02:00:25.021Z,100648.91
2022-12-11T02:02:51.627Z,100658.28
2022-12-11T02:05:18.324Z,100647.00
2022-12-11T02:07:56.836Z,100656.78
2022-12-11T02:10:34.231Z,100653.06
2022-12-11T02:13:47.856Z,100663.44
2022-12-11T02:16:24.539Z,100660.53
2022-12-11T02:19:02.186Z,100662.00
2022-12-11T02:21:40.188Z,100660.00
2022-12-11T02:24:16.376Z,100662.66
2022-12-11T02:27:30.805Z,100656.63
2022-12-11T02:30:03.722Z,100654.97
2022-12-11T02:32:54.363Z,100647.78
2022-12-11T02:35:33.287Z,100644.06
2022-12-11T02:38:06.930Z,100646.09
2022-12-11T02:40:37.067Z,100645.94
2022-12-11T02:43:07.917Z,100645.31
2022-12-11T02:45:36.158Z,100640.97
2022-12-11T02:48:05.891Z,100646.16
2022-12-11T02:50:34.268Z,100639.56
2022-12-11T02:53:02.932Z,100632.78
2022-12-11T02:55:32.229Z,100627.47
2022-12-11T02:58:12.531Z,100629.03
2022-12-11T03:00:39.230Z,100625.72
2022-12-11T03:03:06.124Z,100627.06
2022-12-11T03:05:33.104Z,100632.34
2022-12-11T03:07:59.772Z,100630.44
2022-12-11T03:10:26.362Z,100629.50
2022-12-11T03:12:57.499Z,100627.41
2022-12-11T03:15:42.640Z,100620.03
2022-12-11T03:18:19.034Z,100618.97
2022-12-11T03:20:50.372Z,100621.38
2022-12-11T03:23:44.653Z,100615.25
2022-12-11T03:26:13.806Z,100614.50
2022-12-11T03:28:52.195Z,100612.28
2022-12-11T03:31:47.773Z,100609.47
2022-12-11T03:34:33.992Z,100619.22
2022-12-11T03:37:03.092Z,100628.00
2022-12-11T03:39:33.792Z,100631.53
2022-12-11T03:42:05.935Z,100625.31
2022-12-11T03:44:34.985Z,100617.56
2022-12-11T03:47:06.563Z,100621.94
2022-12-11T03:49:41.660Z,100620.66
2022-12-11T03:52:11.444Z,100621.28
2022-12-11T03:54:40.400Z,100618.13
2022-12-11T03:57:08.729Z,100617.94
2022-12-11T03:59:35.455Z,100616.66
2022-12-11T04:02:02.142Z,100619.56
2022-12-11T04:04:28.809Z,100617.41
2022-12-11T04:06:55.449Z,100625.09
2022-12-11T04:09:22.039Z,100616.00
2022-12-11T04:11:48.745Z,100615.53
2022-12-11T04:14:34.025Z,100609.09
2022-12-11T04:17:01.753Z,100621.13
2022-12-11T04:19:46.844Z,100622.88
2022-12-11T04:22:34.210Z,100627.19
2022-12-11T04:25:02.180Z,100615.28
2022-12-11T04:27:47.351Z,100618.00
2022-12-11T04:30:20.332Z,100612.75
2022-12-11T04:32:46.933Z,100614.16
2022-12-11T04:35:14.484Z,100611.66
2022-12-11T04:37:41.602Z,100612.50
2022-12-11T04:40:11.957Z,100607.47
2022-12-11T04:42:38.708Z,100612.03
2022-12-11T04:45:06.420Z,100607.81
2022-12-11T04:47:34.264Z,100610.34
2022-12-11T04:50:00.822Z,100611.66
2022-12-11T04:52:27.378Z,100621.59
2022-12-11T04:54:53.948Z,100605.97
2022-12-11T04:57:21.587Z,100602.91
2022-12-11T04:59:48.774Z,100611.66
2022-12-11T05:02:16.187Z,100605.97
2022-12-11T05:04:42.770Z,100604.13
2022-12-11T05:07:09.431Z,100600.41
2022-12-11T05:09:36.853Z,100597.88
2022-12-11T05:12:03.740Z,100599.06
2022-12-11T05:14:32.049Z,100593.69
2022-12-11T05:16:59.753Z,100592.00
2022-12-11T05:19:27.004Z,100593.88
2022-12-11T05:21:54.087Z,100594.25
2022-12-11T05:24:20.795Z,100594.91
2022-12-11T05:26:47.361Z,100597.59
2022-12-11T05:29:13.934Z,100593.59
2022-12-11T05:31:40.544Z,100586.16
2022-12-11T05:34:07.179Z,100578.25
2022-12-11T05:36:34.260Z,100579.44
2022-12-11T05:39:01.586Z,100592.59
2022-12-11T05:41:30.825Z,100586.53
2022-12-11T05:43:57.498Z,100581.97
2022-12-11T05:46:26.475Z,100580.13
2022-12-11T05:48:55.983Z,100583.84
2022-12-11T05:51:22.621Z,100577.78
2022-12-11T05:53:51.240Z,100574.72
2022-12-11T05:56:21.330Z,100581.31
2022-12-11T05:58:49.238Z,100574.63
2022-12-11T06:01:18.859Z,100578.16
2022-12-11T06:03:45.783Z,100575.66
2022-12-11T06:06:12.414Z,100579.00
2022-12-11T06:08:39.261Z,100580.00
2022-12-11T06:11:06.648Z,100576.22
2022-12-11T06:13:33.828Z,100577.50
2022-12-11T06:16:05.426Z,100572.13
2022-12-11T06:18:32.299Z,100575.84
2022-12-11T06:20:58.926Z,100568.13
2022-12-11T06:23:25.483Z,100575.84
2022-12-11T06:25:52.048Z,100572.31
2022-12-11T06:28:18.758Z,100565.44
2022-12-11T06:30:45.361Z,100568.38
2022-12-11T06:33:11.912Z,100555.16
2022-12-11T06:35:41.917Z,100557.03
2022-12-11T06:38:10.911Z,100555.53
2022-12-11T06:40:38.427Z,100561.44
2022-12-11T06:43:04.990Z,100571.34
2022-12-11T06:45:31.574Z,100581.03
2022-12-11T06:47:59.032Z,100579.19
2022-12-11T06:50:25.972Z,100579.81
2022-12-11T06:52:52.565Z,100584.56
2022-12-11T06:55:19.342Z,100581.69
2022-12-11T06:57:45.887Z,100586.25
2022-12-11T07:00:13.131Z,100583.94
2022-12-11T07:02:39.726Z,100584.56
2022-12-11T07:05:07.082Z,100582.72
2022-12-11T07:07:33.860Z,100583.94
2022-12-11T07:10:07.557Z,100575.19
2022-12-11T07:12:35.761Z,100575.66
2022-12-11T07:15:02.689Z,100578.91
2022-12-11T07:17:29.676Z,100581.22
2022-12-11T07:19:56.577Z,100588.09
2022-12-11T07:22:23.217Z,100581.03
2022-12-11T07:24:49.782Z,100575.66
2022-12-11T07:27:16.448Z,100581.22
2022-12-11T07:29:43.075Z,100584.94
2022-12-11T07:32:09.750Z,100591.81
2022-12-11T07:34:36.532Z,100590.81
2022-12-11T07:37:03.454Z,100599.72
2022-12-11T07:39:30.074Z,100593.03
2022-12-11T07:41:56.631Z,100598.25
2022-12-11T07:44:23.359Z,100593.56
2022-12-11T07:46:50.071Z,100595.09
2022-12-11T07:49:16.933Z,100597.13
2022-12-11T07:51:43.568Z,100601.84
2022-12-11T07:54:16.873Z,100606.22
2022-12-11T07:56:47.449Z,100607.91
2022-12-11T07:59:16.904Z,100607.91
2022-12-11T08:01:43.737Z,100612.94
2022-12-11T08:04:11.571Z,100607.06
2022-12-11T08:06:40.156Z,100603.34
2022-12-11T08:09:14.700Z,100606.22
2022-12-11T08:11:45.626Z,100602.69
2022-12-11T08:14:14.932Z,100611.53
2022-12-11T08:16:43.189Z,100611.34
2022-12-11T08:19:11.808Z,100608.38
2022-12-11T08:21:39.335Z,100611.09
2022-12-11T08:24:06.631Z,100616.56
2022-12-11T08:26:33.287Z,100612.19
2022-12-11T08:29:01.501Z,100621.97
2022-12-11T08:31:28.171Z,100616.75
2022-12-11T08:33:56.551Z,100615.06
2022-12-11T08:36:24.088Z,100622.16
2022-12-11T08:38:51.054Z,100613.88
2022-12-11T08:41:20.502Z,100614.50
2022-12-11T08:43:48.215Z,100619.25
2022-12-11T08:46:16.158Z,100622.59
2022-12-11T08:48:43.785Z,100614.81
2022-12-11T08:51:15.704Z,100608.59
2022-12-11T08:53:42.501Z,100615.09
2022-12-11T08:56:11.848Z,100613.44
2022-12-11T08:58:39.095Z,100616.78
2022-12-11T09:01:15.245Z,100609.69
2022-12-11T09:03:42.653Z,100609.13
2022-12-11T09:06:12.374Z,100610.78
2022-12-11T09:08:39.391Z,100611.00
2022-12-11T09:11:12.700Z,100620.69
2022-12-11T09:13:40.610Z,100618.97
2022-12-11T09:16:10.313Z,100617.69
2022-12-11T09:18:38.454Z,100617.50
2022-12-11T09:21:10.339Z,100625.16
2022-12-11T09:23:37.493Z,100629.88
2022-12-11T09:26:06.190Z,100616.59
2022-12-11T09:28:33.672Z,100607.81
2022-12-11T09:31:00.773Z,100608.66
2022-12-11T09:33:27.704Z,100602.06
2022-12-11T09:36:00.940Z,100599.91
2022-12-11T09:38:27.595Z,100599.06
2022-12-11T09:40:54.227Z,100598.88
2022-12-11T09:43:41.123Z,100601.13
2022-12-11T09:46:13.199Z,100593.16
2022-12-11T09:48:46.386Z,100595.34
2022-12-11T09:51:23.590Z,100599.91
2022-12-11T09:53:51.701Z,100599.72
2022-12-11T09:56:26.128Z,100600.09
2022-12-11T09:59:23.504Z,100597.03
2022-12-11T10:02:08.975Z,100596.88
2022-12-11T10:04:35.577Z,100592.19
2022-12-11T10:07:21.012Z,100589.13
2022-12-11T10:09:53.891Z,100588.09
2022-12-11T10:12:45.205Z,100587.25
2022-12-11T10:15:35.403Z,100579.56
2022-12-11T10:18:05.498Z,100581.59
2022-12-11T10:20:39.045Z,100572.03
2022-12-11T10:23:15.428Z,100577.03
2022-12-11T10:25:49.841Z,100578.25
2022-12-11T10:28:19.286Z,100577.44
2022-12-11T10:31:03.337Z,100569.53
2022-12-11T10:33:53.985Z,100565.97
2022-12-11T10:36:27.046Z,100574.06
2022-12-11T10:38:53.608Z,100555.75
2022-12-11T10:41:29.784Z,100568.00
2022-12-11T10:43:56.622Z,100561.13
2022-12-11T10:46:28.087Z,100552.47
2022-12-11T10:48:54.670Z,100555.16
2022-12-11T10:51:24.731Z,100555.16
2022-12-11T10:53:53.923Z,100552.47
2022-12-11T10:56:29.029Z,100546.91
2022-12-11T10:58:57.660Z,100544.22
2022-12-11T11:01:27.287Z,100546.16
2022-12-11T11:03:56.811Z,100544.28
2022-12-11T11:06:24.799Z,100538.88
2022-12-11T11:08:54.228Z,100534.53
2022-12-11T11:11:33.913Z,100534.34
2022-12-11T11:14:21.078Z,100542.22
2022-12-11T11:16:50.395Z,100534.06
2022-12-11T11:19:31.520Z,100529.50
2022-12-11T11:22:03.128Z,100534.06
2022-12-11T11:24:36.478Z,100527.00
2022-12-11T11:27:13.712Z,100529.06
2022-12-11T11:29:42.062Z,100525.88
2022-12-11T11:32:32.819Z,100524.22
2022-12-11T11:35:21.322Z,100532.09
2022-12-11T11:37:58.902Z,100535.84
2022-12-11T11:40:38.497Z,100512.38
2022-12-11T11:43:30.588Z,100518.44
2022-12-11T11:46:02.022Z,100522.53
2022-12-11T11:48:46.543Z,100513.22
2022-12-11T11:51:15.762Z,100518.63
2022-12-11T11:53:48.260Z,100505.13
2022-12-11T11:56:28.866Z,100504.78
2022-12-11T11:59:17.481Z,100509.78
2022-12-11T12:01:44.615Z,100508.31
2022-12-11T12:04:12.503Z,100494.44
2022-12-11T12:07:00.704Z,100490.34
2022-12-11T12:10:05.049Z,100499.44
2022-12-11T12:12:48.002Z,100487.00
2022-12-11T12:15:25.283Z,100503.19
2022-12-11T12:17:58.604Z,100494.06
2022-12-11T12:20:31.014Z,100504.84
2022-12-11T12:23:15.967Z,100508.75
2022-12-11T12:25:59.164Z,100516.66
2022-12-11T12:28:51.977Z,100508.56
2022-12-11T12:31:37.451Z,100508.13
2022-12-11T12:34:33.144Z,100508.56
2022-12-11T12:37:24.157Z,100505.88
2022-12-11T12:39:50.657Z,100509.53
2022-12-11T12:42:41.854Z,100502.44
2022-12-11T12:45:14.331Z,100502.06
2022-12-11T12:47:44.470Z,100492.09
2022-12-11T12:50:17.107Z,100493.97
2022-12-11T12:52:44.876Z,100499.16
2022-12-11T12:55:14.609Z,100497.88
2022-12-11T12:57:55.450Z,100493.31
2022-12-11T13:00:31.701Z,100491.81
2022-12-11T13:03:01.456Z,100492.63
2022-12-11T13:05:34.565Z,100477.03
2022-12-11T13:08:08.493Z,100485.97
2022-12-11T13:10:38.081Z,100481.97
2022-12-11T13:13:06.647Z,100480.50
2022-12-11T13:15:43.853Z,100480.13
2022-12-11T13:18:32.832Z,100477.81
2022-12-11T13:20:59.619Z,100477.97
2022-12-11T13:23:40.265Z,100466.09
2022-12-11T13:26:09.405Z,100470.91
2022-12-11T13:28:38.682Z,100475.28
2022-12-11T13:31:05.483Z,100476.28
2022-12-11T13:33:32.911Z,100475.28
2022-12-11T13:36:13.045Z,100477.81
2022-12-11T13:38:49.605Z,100467.84
2022-12-11T13:41:18.920Z,100471.75
2022-12-11T13:43:48.572Z,100466.09
2022-12-11T13:46:21.124Z,100465.69
2022-12-11T13:48:53.802Z,100460.50
2022-12-11T13:51:22.964Z,100465.50
2022-12-11T13:53:49.609Z,100473.78
2022-12-11T13:56:20.982Z,100463.44
2022-12-11T13:58:48.302Z,100455.34
2022-12-11T14:01:33.926Z,100457.41
2022-12-11T14:04:09.676Z,100462.16
2022-12-11T14:06:38.874Z,100464.22
2022-12-11T14:09:07.180Z,100463.59
2022-12-11T14:11:40.959Z,100457.16
2022-12-11T14:14:29.578Z,100461.53
2022-12-11T14:16:56.703Z,100457.91
2022-12-11T14:19:24.879Z,100463.97
2022-12-11T14:22:05.689Z,100462.38
2022-12-11T14:24:33.004Z,100467.13
2022-12-11T14:27:00.123Z,100468.59
2022-12-11T14:29:32.226Z,100467.13
2022-12-11T14:32:05.510Z,100462.94
2022-12-11T14:34:43.507Z,100473.34
2022-12-11T14:37:11.082Z,100478.09
2022-12-11T14:39:58.071Z,100473.72
2022-12-11T14:42:49.592Z,100464.97
2022-12-11T14:45:20.486Z,100467.22
2022-12-11T14:47:47.287Z,100471.97
2022-12-11T14:50:19.432Z,100473.63
2022-12-11T14:52:50.783Z,100469.66
2022-12-11T14:55:22.285Z,100474.00
2022-12-11T14:57:52.459Z,100476.50
2022-12-11T15:00:30.366Z,100467.59
2022-12-11T15:03:23.551Z,100464.25
2022-12-11T15:05:50.103Z,100467.59
2022-12-11T15:08:25.495Z,100465.09
2022-12-11T15:11:04.360Z,100467.22
2022-12-11T15:13:31.962Z,100474.66
2022-12-11T15:15:59.090Z,100482.56
2022-12-11T15:18:32.750Z,100476.97
2022-12-11T15:21:11.465Z,100473.63
2022-12-11T15:23:54.823Z,100476.31
2022-12-11T15:26:40.882Z,100477.81
2022-12-11T15:29:26.599Z,100472.97
2022-12-11T15:32:04.601Z,100468.88
2022-12-11T15:35:00.475Z,100468.44
2022-12-11T15:37:30.285Z,100471.13
2022-12-11T15:39:58.967Z,100468.13
2022-12-11T15:42:39.053Z,100473.19
2022-12-11T15:45:08.197Z,100461.75
2022-12-11T15:47:34.764Z,100468.44
2022-12-11T15:50:19.771Z,100469.44
2022-12-11T15:52:46.644Z,100470.00
2022-12-11T15:55:13.495Z,100474.41
2022-12-11T15:57:46.724Z,100473.81
2022-12-11T16:00:21.407Z,100474.91
2022-12-11T16:02:48.281Z,100476.06
2022-12-11T16:05:15.454Z,100476.06
2022-12-11T16:07:44.559Z,100474.47
2022-12-11T16:10:17.741Z,100472.06
2022-12-11T16:12:44.793Z,100469.34
2022-12-11T16:15:15.298Z,100472.88
2022-12-11T16:17:44.167Z,100475.00
2022-12-11T16:20:13.068Z,100474.44
2022-12-11T16:22:39.647Z,100479.38
2022-12-11T16:25:06.717Z,100476.22
2022-12-11T16:27:33.286Z,100469.34
2022-12-11T16:29:59.953Z,100468.50
2022-12-11T16:32:26.521Z,100464.31
2022-12-11T16:34:54.075Z,100463.47
2022-12-11T16:37:20.683Z,100472.22
2022-12-11T16:39:47.475Z,100458.09
2022-12-11T16:42:14.120Z,100466.38
2022-12-11T16:44:43.986Z,100456.81
2022-12-11T16:47:11.144Z,100464.50
2022-12-11T16:49:37.828Z,100459.31
2022-12-11T16:52:04.670Z,100461.81
2022-12-11T16:54:31.469Z,100463.03
2022-12-11T16:56:58.109Z,100470.94
2022-12-11T16:59:24.964Z,100453.81
2022-12-11T17:01:52.025Z,100461.16
2022-12-11T17:04:18.917Z,100461.75
2022-12-11T17:06:46.443Z,100455.00
2022-12-11T17:09:13.029Z,100462.59
2022-12-11T17:11:39.646Z,100452.97
2022-12-11T17:14:06.497Z,100457.34
2022-12-11T17:16:34.062Z,100452.81
2022-12-11T17:19:00.872Z,100459.22
2022-12-11T17:21:27.493Z,100462.59
2022-12-11T17:23:54.180Z,100459.38
2022-12-11T17:26:20.889Z,100454.34
2022-12-11T17:28:47.891Z,100457.06
2022-12-11T17:31:18.974Z,100453.97
2022-12-11T17:33:46.685Z,100453.97
2022-12-11T17:36:16.545Z,100461.63
2022-12-11T17:38:43.191Z,100462.06
2022-12-11T17:41:18.374Z,100456.34
2022-12-11T17:43:48.172Z,100455.84
2022-12-11T17:46:14.868Z,100445.25
2022-12-11T17:48:41.506Z,100443.97
2022-12-11T17:51:09.466Z,100449.59
2022-12-11T17:53:36.459Z,100450.81
2022-12-11T17:56:05.280Z,100449.59
2022-12-11T17:58:31.982Z,100444.59
2022-12-11T18:00:58.948Z,100449.41
2022-12-11T18:03:27.375Z,100446.28
2022-12-11T18:05:56.420Z,100453.34
2022-12-11T18:08:31.975Z,100451.66
2022-12-11T18:11:05.873Z,100455.38
2022-12-11T18:13:32.475Z,100460.97
2022-12-11T18:16:03.955Z,100450.81
2022-12-11T18:18:30.905Z,100451.03
2022-12-11T18:20:58.150Z,100459.56
2022-12-11T18:23:25.151Z,100458.72
2022-12-11T18:25:51.971Z,100456.03
2022-12-11T18:28:18.798Z,100457.25
2022-12-11T18:30:45.377Z,100457.69
2022-12-11T18:33:13.213Z,100459.94
2022-12-11T18:35:41.456Z,100460.78
2022-12-11T18:38:08.301Z,100444.78
2022-12-11T18:40:35.030Z,100460.59
2022-12-11T18:43:01.769Z,100451.66
2022-12-11T18:45:28.431Z,100455.69
2022-12-11T18:47:56.557Z,100456.66
2022-12-11T18:50:23.277Z,100453.34
2022-12-11T18:52:54.147Z,100443.56
2022-12-11T18:55:21.018Z,100444.22
2022-12-11T18:57:47.656Z,100442.75
2022-12-11T19:00:15.335Z,100442.34
2022-12-11T19:02:42.314Z,100438.81
2022-12-11T19:05:09.693Z,100444.59
2022-12-11T19:07:37.086Z,100449.16
2022-12-11T19:10:05.036Z,100442.28
2022-12-11T19:12:31.889Z,100446.00
2022-12-11T19:14:58.436Z,100444.97
2022-12-11T19:17:25.085Z,100452.44
2022-12-11T19:19:51.662Z,100446.84
2022-12-11T19:22:18.242Z,100454.94
2022-12-11T19:24:45.046Z,100459.50
2022-12-11T19:27:13.726Z,100452.25
2022-12-11T19:29:41.276Z,100455.75
2022-12-11T19:32:07.864Z,100464.88
2022-12-11T19:34:34.472Z,100456.78
2022-12-11T19:37:01.099Z,100458.72
2022-12-11T19:39:27.861Z,100456.59
2022-12-11T19:41:54.407Z,100456.41
2022-12-11T19:44:21.024Z,100456.88
2022-12-11T19:46:47.758Z,100469.50
2022-12-11T19:49:14.478Z,100466.31
2022-12-11T19:51:43.381Z,100457.81
2022-12-11T19:54:13.604Z,100460.03
2022-12-11T19:56:40.726Z,100460.03
2022-12-11T19:59:11.638Z,100458.72
2022-12-11T20:01:38.889Z,100461.75
2022-12-11T20:04:12.816Z,100460.91
2022-12-11T20:06:41.803Z,100452.44
2022-12-11T20:09:11.816Z,100461.06
2022-12-11T20:11:43.212Z,100459.69
2022-12-11T20:14:25.741Z,100450.13
2022-12-11T20:17:10.518Z,100448.97
2022-12-11T20:19:39.332Z,100445.25
2022-12-11T20:22:06.184Z,100448.97
2022-12-11T20:24:32.837Z,100445.44
2022-12-11T20:27:00.170Z,100435.47
2022-12-11T20:29:27.211Z,100442.75
2022-12-11T20:31:53.882Z,100438.19
2022-12-11T20:34:20.536Z,100429.63
2022-12-11T20:36:48.601Z,100433.44
2022-12-11T20:39:16.884Z,100431.75
2022-12-11T20:41:43.934Z,100429.44
2022-12-11T20:44:10.670Z,100431.13
2022-12-11T20:46:37.253Z,100429.44
2022-12-11T20:49:03.977Z,100434.84
2022-12-11T20:51:32.523Z,100426.75
2022-12-11T20:53:59.666Z,100430.94
2022-12-11T20:56:29.890Z,100434.66
2022-12-11T20:58:57.610Z,100437.34
2022-12-11T21:01:26.136Z,100435.47
2022-12-11T21:03:53.628Z,100430.72
2022-12-11T21:06:21.860Z,100425.34
2022-12-11T21:08:48.669Z,100430.38
2022-12-11T21:11:15.450Z,100425.00
2022-12-11T21:13:42.300Z,100435.63
2022-12-11T21:16:10.430Z,100432.09
2022-12-11T21:18:37.595Z,100432.25
2022-12-11T21:21:04.513Z,100435.63
2022-12-11T21:23:31.805Z,100438.47
2022-12-11T21:25:58.435Z,100426.00
2022-12-11T21:28:25.014Z,100424.69
2022-12-11T21:30:51.585Z,100434.47
2022-12-11T21:33:18.158Z,100432.59
2022-12-11T21:35:44.736Z,100443.13
2022-12-11T21:38:11.393Z,100436.91
2022-12-11T21:40:38.017Z,100442.09
2022-12-11T21:43:04.669Z,100435.03
2022-12-11T21:46:00.490Z,100441.28
2022-12-11T21:48:22.035Z,100446.84
2022-12-11T21:50:48.596Z,100441.06
2022-12-11T21:53:15.229Z,100439.41
2022-12-11T21:55:42.353Z,100443.56
2022-12-11T21:58:10.151Z,100446.09
2022-12-11T22:00:38.216Z,100438.47
2022-12-11T22:03:05.999Z,100439.03
2022-12-11T22:05:32.895Z,100443.03
2022-12-11T22:07:59.543Z,100439.69
2022-12-11T22:10:26.226Z,100439.03
2022-12-11T22:12:52.801Z,100432.44
2022-12-11T22:15:19.478Z,100435.38
2022-12-11T22:17:46.324Z,100442.84
2022-12-11T22:20:13.074Z,100450.09
2022-12-11T22:22:39.751Z,100448.63
2022-12-11T22:25:07.895Z,100450.84
2022-12-11T22:27:34.862Z,100441.91
2022-12-11T22:30:01.512Z,100433.63
2022-12-11T22:32:28.289Z,100437.63
2022-12-11T22:34:56.322Z,100430.94
2022-12-11T22:37:22.983Z,100446.09
2022-12-11T22:39:49.659Z,100443.78
2022-12-11T22:42:16.360Z,100444.81
2022-12-11T22:44:42.943Z,100445.63
2022-12-11T22:47:09.503Z,100443.50
2022-12-11T22:49:36.224Z,100438.13
2022-12-11T22:52:02.864Z,100437.63
2022-12-11T22:54:29.432Z,100435.94
2022-12-11T22:56:56.022Z,100436.81
2022-12-11T22:59:23.213Z,100429.72
2022-12-11T23:01:49.762Z,100438.63
2022-12-11T23:04:16.353Z,100425.16
2022-12-11T23:06:42.919Z,100422.66
2022-12-11T23:09:10.781Z,100427.22
2022-12-11T23:11:38.208Z,100428.56
2022-12-11T23:14:07.346Z,100415.59
2022-12-11T23:16:34.359Z,100421.31
2022-12-11T23:19:00.953Z,100419.31
2022-12-11T23:21:28.115Z,100413.72
2022-12-11T23:23:56.023Z,100421.63
2022-12-11T23:26:22.826Z,100413.53
2022-12-11T23:28:49.881Z,100409.56
2022-12-11T23:31:17.082Z,100406.13
2022-12-11T23:33:43.804Z,100395.69
2022-12-11T23:36:10.684Z,100399.34
2022-12-11T23:38:37.564Z,100399.06
2022-12-11T23:41:05.372Z,100399.88
2022-12-11T23:43:32.167Z,100410.19
2022-12-11T23:45:58.790Z,100407.81
2022-12-11T23:48:25.408Z,100413.84
2022-12-11T23:50:52.048Z,100406.97
2022-12-11T23:53:18.933Z,100404.44
2022-12-11T23:55:45.721Z,100408.47
2022-12-11T23:58:12.290Z,100406.13
